Fsl New York — 9VBQ8 — position and weather

sailwx.info

Track history (hours):
 
Tides and Currents Weather Stations Pressure Air Temp Water Temp Dewpoint Dewpoint Depression Visibility Wind Speed Wind Dir Waves Ship Positions

Fsl New York

Last reported at 2016-Feb-08 08:31 UTC. Time now 2016-Feb-10 12:51 UTC.
Position N 29°13' W 094°41'.

Length 138 m; draft 7 m.

Type: Tanker. MMSI: 565174000.

Date/timePositionNaut miles runAvg speedWind from/ knotsBaromVisibWave heightAir tempDewpointWater temp
2016-Feb-08 08:31N 29°13' W 094°41'  
2016-Feb-04 11:04N 29°45' W 095°06'3 5.0
2016-Feb-04 10:32N 29°44' W 095°03'9 9.6
2016-Feb-04 09:33N 29°36' W 094°57'1212.1
2016-Feb-04 08:33N 29°26' W 094°50'16 0.5
2016-Feb-02 22:32N 29°13' W 094°39'  
2016-Jan-31 13:33N 29°26' W 094°50'1212.4
2016-Jan-31 12:34N 29°37' W 094°57'8 0.2
2016-Jan-30 00:33N 29°44' W 095°01'5 5.1
2016-Jan-29 23:33N 29°39' W 094°58'1313.0
2016-Jan-29 22:33N 29°28' W 094°51'19 9.4
2016-Jan-29 20:33N 29°17' W 094°33'3 0.7
2016-Jan-29 16:32N 29°20' W 094°34'0 0.0
2016-Jan-29 15:33N 29°20' W 094°34'0 0.0
2016-Jan-29 14:33N 29°20' W 094°34'0 0.0
2016-Jan-29 13:33N 29°20' W 094°34'0 0.0
2016-Jan-29 12:33N 29°20' W 094°34'3 2.9
2016-Jan-29 11:32N 29°19' W 094°31'10 8.9
2016-Jan-29 10:24N 29°10' W 094°24'1113.3
2016-Jan-29 09:33N 29°04' W 094°13'1313.3
2016-Jan-29 08:33N 28°56' W 094°01'  
Track history (hours):
 
Tides and Currents Weather Stations Pressure Air Temp Water Temp Dewpoint Dewpoint Depression Visibility Wind Speed Wind Dir Waves Ship Positions

Fsl New York

Last reported at 2016-Feb-08 08:31 UTC. Time now 2016-Feb-10 12:51 UTC.
Position N 29°13' W 094°41'.

Length 138 m; draft 7 m.

Type: Tanker. MMSI: 565174000.

Date/timePositionNaut miles runAvg speedWind from/ knotsBaromVisibWave heightAir tempDewpointWater temp
2016-Feb-08 08:31N 29°13' W 094°41'  
2016-Feb-04 11:04N 29°45' W 095°06'3 5.0
2016-Feb-04 10:32N 29°44' W 095°03'9 9.6
2016-Feb-04 09:33N 29°36' W 094°57'1212.1
2016-Feb-04 08:33N 29°26' W 094°50'16 0.5
2016-Feb-02 22:32N 29°13' W 094°39'  
2016-Jan-31 13:33N 29°26' W 094°50'1212.4
2016-Jan-31 12:34N 29°37' W 094°57'8 0.2
2016-Jan-30 00:33N 29°44' W 095°01'5 5.1
2016-Jan-29 23:33N 29°39' W 094°58'1313.0
2016-Jan-29 22:33N 29°28' W 094°51'19 9.4
2016-Jan-29 20:33N 29°17' W 094°33'3 0.7
2016-Jan-29 16:32N 29°20' W 094°34'0 0.0
2016-Jan-29 15:33N 29°20' W 094°34'0 0.0
2016-Jan-29 14:33N 29°20' W 094°34'0 0.0
2016-Jan-29 13:33N 29°20' W 094°34'0 0.0
2016-Jan-29 12:33N 29°20' W 094°34'3 2.9
2016-Jan-29 11:32N 29°19' W 094°31'10 8.9
2016-Jan-29 10:24N 29°10' W 094°24'1113.3
2016-Jan-29 09:33N 29°04' W 094°13'1313.3
2016-Jan-29 08:33N 28°56' W 094°01'  

Dump ship's entire track history